sensor_id;sensor_type;location;lat;lon;timestamp;P1;durP1;ratioP1;P2;durP2;ratioP2
25137;SDS011;13112;50.986;4.354;2022-07-23T00:00:59;26.67;;;24.30;;
25137;SDS011;13112;50.986;4.354;2022-07-23T00:03:25;27.95;;;25.45;;
25137;SDS011;13112;50.986;4.354;2022-07-23T00:05:51;27.50;;;24.90;;
25137;SDS011;13112;50.986;4.354;2022-07-23T00:08:17;26.38;;;23.95;;
25137;SDS011;13112;50.986;4.354;2022-07-23T00:10:43;27.45;;;24.85;;
25137;SDS011;13112;50.986;4.354;2022-07-23T00:13:09;26.70;;;24.15;;
25137;SDS011;13112;50.986;4.354;2022-07-23T00:15:34;26.30;;;24.15;;
25137;SDS011;13112;50.986;4.354;2022-07-23T00:18:00;27.80;;;25.10;;
25137;SDS011;13112;50.986;4.354;2022-07-23T00:20:25;27.15;;;24.52;;
25137;SDS011;13112;50.986;4.354;2022-07-23T00:22:53;27.45;;;24.63;;
25137;SDS011;13112;50.986;4.354;2022-07-23T00:25:20;26.52;;;24.02;;
25137;SDS011;13112;50.986;4.354;2022-07-23T00:27:47;25.67;;;23.52;;
25137;SDS011;13112;50.986;4.354;2022-07-23T00:30:12;27.45;;;24.83;;
25137;SDS011;13112;50.986;4.354;2022-07-23T00:32:46;27.20;;;24.60;;
25137;SDS011;13112;50.986;4.354;2022-07-23T00:35:12;27.42;;;25.08;;
25137;SDS011;13112;50.986;4.354;2022-07-23T00:37:38;27.48;;;24.80;;
25137;SDS011;13112;50.986;4.354;2022-07-23T00:40:03;28.02;;;24.55;;
25137;SDS011;13112;50.986;4.354;2022-07-23T00:42:30;26.33;;;23.95;;
25137;SDS011;13112;50.986;4.354;2022-07-23T00:44:56;27.00;;;24.50;;
25137;SDS011;13112;50.986;4.354;2022-07-23T00:47:22;25.83;;;23.70;;
25137;SDS011;13112;50.986;4.354;2022-07-23T00:49:48;26.90;;;24.30;;
25137;SDS011;13112;50.986;4.354;2022-07-23T00:52:13;27.70;;;25.02;;
25137;SDS011;13112;50.986;4.354;2022-07-23T00:54:39;26.67;;;24.40;;
25137;SDS011;13112;50.986;4.354;2022-07-23T00:57:05;28.13;;;25.23;;
25137;SDS011;13112;50.986;4.354;2022-07-23T00:59:31;27.85;;;25.30;;
25137;SDS011;13112;50.986;4.354;2022-07-23T01:01:56;27.17;;;24.70;;
25137;SDS011;13112;50.986;4.354;2022-07-23T01:04:22;27.33;;;24.80;;
25137;SDS011;13112;50.986;4.354;2022-07-23T01:06:48;28.80;;;26.27;;
25137;SDS011;13112;50.986;4.354;2022-07-23T01:09:14;26.70;;;24.42;;
25137;SDS011;13112;50.986;4.354;2022-07-23T01:11:39;28.02;;;25.30;;
25137;SDS011;13112;50.986;4.354;2022-07-23T01:14:16;28.33;;;25.55;;
25137;SDS011;13112;50.986;4.354;2022-07-23T01:16:44;27.13;;;24.83;;
25137;SDS011;13112;50.986;4.354;2022-07-23T01:19:11;28.00;;;25.40;;
25137;SDS011;13112;50.986;4.354;2022-07-23T01:21:41;26.20;;;23.83;;
25137;SDS011;13112;50.986;4.354;2022-07-23T01:24:09;25.67;;;23.30;;
25137;SDS011;13112;50.986;4.354;2022-07-23T01:26:36;25.30;;;23.20;;
25137;SDS011;13112;50.986;4.354;2022-07-23T01:29:03;26.30;;;23.90;;
25137;SDS011;13112;50.986;4.354;2022-07-23T01:31:29;26.52;;;24.23;;
25137;SDS011;13112;50.986;4.354;2022-07-23T01:33:55;26.73;;;24.27;;
25137;SDS011;13112;50.986;4.354;2022-07-23T01:36:21;24.73;;;22.63;;
25137;SDS011;13112;50.986;4.354;2022-07-23T01:38:47;26.67;;;24.48;;
25137;SDS011;13112;50.986;4.354;2022-07-23T01:41:13;27.00;;;24.23;;
25137;SDS011;13112;50.986;4.354;2022-07-23T01:43:39;26.77;;;24.17;;
25137;SDS011;13112;50.986;4.354;2022-07-23T01:46:05;25.35;;;23.17;;
25137;SDS011;13112;50.986;4.354;2022-07-23T01:48:30;25.20;;;22.88;;
25137;SDS011;13112;50.986;4.354;2022-07-23T01:50:56;25.42;;;23.23;;
25137;SDS011;13112;50.986;4.354;2022-07-23T01:53:22;25.45;;;23.25;;
25137;SDS011;13112;50.986;4.354;2022-07-23T01:55:48;24.90;;;22.73;;
25137;SDS011;13112;50.986;4.354;2022-07-23T01:58:13;25.02;;;22.88;;
25137;SDS011;13112;50.986;4.354;2022-07-23T02:00:39;25.55;;;23.35;;
25137;SDS011;13112;50.986;4.354;2022-07-23T02:03:05;25.17;;;23.08;;
25137;SDS011;13112;50.986;4.354;2022-07-23T02:05:31;25.95;;;23.73;;
25137;SDS011;13112;50.986;4.354;2022-07-23T02:07:57;26.70;;;23.98;;
25137;SDS011;13112;50.986;4.354;2022-07-23T02:10:23;25.52;;;23.23;;
25137;SDS011;13112;50.986;4.354;2022-07-23T02:12:49;27.00;;;24.40;;
25137;SDS011;13112;50.986;4.354;2022-07-23T02:15:15;25.55;;;23.30;;
25137;SDS011;13112;50.986;4.354;2022-07-23T02:17:41;25.77;;;23.45;;
25137;SDS011;13112;50.986;4.354;2022-07-23T02:20:07;26.55;;;24.05;;
25137;SDS011;13112;50.986;4.354;2022-07-23T02:22:33;29.20;;;26.15;;
25137;SDS011;13112;50.986;4.354;2022-07-23T02:24:59;27.83;;;24.90;;
25137;SDS011;13112;50.986;4.354;2022-07-23T02:27:25;26.63;;;24.15;;
25137;SDS011;13112;50.986;4.354;2022-07-23T02:29:51;25.77;;;23.17;;
25137;SDS011;13112;50.986;4.354;2022-07-23T02:32:16;25.10;;;22.90;;
25137;SDS011;13112;50.986;4.354;2022-07-23T02:34:42;26.33;;;23.80;;
25137;SDS011;13112;50.986;4.354;2022-07-23T02:37:08;25.80;;;23.33;;
25137;SDS011;13112;50.986;4.354;2022-07-23T02:39:34;26.80;;;24.25;;
25137;SDS011;13112;50.986;4.354;2022-07-23T02:42:00;26.00;;;23.65;;
25137;SDS011;13112;50.986;4.354;2022-07-23T02:44:26;25.33;;;22.90;;
25137;SDS011;13112;50.986;4.354;2022-07-23T02:46:52;27.35;;;24.58;;
25137;SDS011;13112;50.986;4.354;2022-07-23T02:49:17;26.13;;;23.83;;
25137;SDS011;13112;50.986;4.354;2022-07-23T02:51:43;26.58;;;23.98;;
25137;SDS011;13112;50.986;4.354;2022-07-23T02:54:09;26.88;;;24.33;;
25137;SDS011;13112;50.986;4.354;2022-07-23T02:56:34;27.27;;;24.60;;
25137;SDS011;13112;50.986;4.354;2022-07-23T02:59:00;26.00;;;23.65;;
25137;SDS011;13112;50.986;4.354;2022-07-23T03:01:26;26.35;;;23.88;;
25137;SDS011;13112;50.986;4.354;2022-07-23T03:03:51;26.13;;;23.92;;
25137;SDS011;13112;50.986;4.354;2022-07-23T03:06:17;26.98;;;24.65;;
25137;SDS011;13112;50.986;4.354;2022-07-23T03:08:43;26.80;;;24.40;;
25137;SDS011;13112;50.986;4.354;2022-07-23T03:11:08;25.13;;;23.10;;
25137;SDS011;13112;50.986;4.354;2022-07-23T03:13:39;24.80;;;22.70;;
25137;SDS011;13112;50.986;4.354;2022-07-23T03:16:06;24.35;;;22.15;;
25137;SDS011;13112;50.986;4.354;2022-07-23T03:18:32;24.27;;;22.15;;
25137;SDS011;13112;50.986;4.354;2022-07-23T03:20:58;26.48;;;24.15;;
25137;SDS011;13112;50.986;4.354;2022-07-23T03:23:23;28.08;;;24.88;;
25137;SDS011;13112;50.986;4.354;2022-07-23T03:25:49;27.27;;;24.85;;
25137;SDS011;13112;50.986;4.354;2022-07-23T03:28:15;26.77;;;24.23;;
25137;SDS011;13112;50.986;4.354;2022-07-23T03:30:44;24.83;;;22.63;;
25137;SDS011;13112;50.986;4.354;2022-07-23T03:33:12;24.98;;;22.58;;
25137;SDS011;13112;50.986;4.354;2022-07-23T03:35:38;25.48;;;23.02;;
25137;SDS011;13112;50.986;4.354;2022-07-23T03:38:03;27.70;;;25.13;;
25137;SDS011;13112;50.986;4.354;2022-07-23T03:40:29;26.70;;;24.30;;
25137;SDS011;13112;50.986;4.354;2022-07-23T03:42:55;28.00;;;25.27;;
25137;SDS011;13112;50.986;4.354;2022-07-23T03:45:20;26.55;;;23.98;;
25137;SDS011;13112;50.986;4.354;2022-07-23T03:47:46;27.15;;;24.55;;
25137;SDS011;13112;50.986;4.354;2022-07-23T03:50:12;27.15;;;24.52;;
25137;SDS011;13112;50.986;4.354;2022-07-23T03:52:37;25.30;;;22.92;;
25137;SDS011;13112;50.986;4.354;2022-07-23T03:55:03;26.08;;;23.73;;
25137;SDS011;13112;50.986;4.354;2022-07-23T03:57:29;25.92;;;22.73;;
25137;SDS011;13112;50.986;4.354;2022-07-23T03:59:55;24.70;;;22.40;;
25137;SDS011;13112;50.986;4.354;2022-07-23T04:02:21;28.13;;;24.60;;
25137;SDS011;13112;50.986;4.354;2022-07-23T04:04:46;26.40;;;23.65;;
25137;SDS011;13112;50.986;4.354;2022-07-23T04:07:12;23.67;;;21.67;;
25137;SDS011;13112;50.986;4.354;2022-07-23T04:09:39;24.48;;;22.33;;
25137;SDS011;13112;50.986;4.354;2022-07-23T04:12:07;23.35;;;21.13;;
25137;SDS011;13112;50.986;4.354;2022-07-23T04:14:33;25.33;;;22.83;;
25137;SDS011;13112;50.986;4.354;2022-07-23T04:16:58;24.05;;;21.85;;
25137;SDS011;13112;50.986;4.354;2022-07-23T04:19:24;26.70;;;23.73;;
25137;SDS011;13112;50.986;4.354;2022-07-23T04:21:50;24.30;;;21.95;;
25137;SDS011;13112;50.986;4.354;2022-07-23T04:24:16;23.45;;;21.35;;
25137;SDS011;13112;50.986;4.354;2022-07-23T04:26:43;25.48;;;21.98;;
25137;SDS011;13112;50.986;4.354;2022-07-23T04:29:09;23.60;;;21.50;;
25137;SDS011;13112;50.986;4.354;2022-07-23T04:31:35;23.52;;;21.23;;
25137;SDS011;13112;50.986;4.354;2022-07-23T04:34:01;23.73;;;21.48;;
25137;SDS011;13112;50.986;4.354;2022-07-23T04:36:26;22.95;;;20.75;;
25137;SDS011;13112;50.986;4.354;2022-07-23T04:38:52;23.83;;;21.42;;
25137;SDS011;13112;50.986;4.354;2022-07-23T04:41:18;23.77;;;21.67;;
25137;SDS011;13112;50.986;4.354;2022-07-23T04:43:44;24.13;;;22.02;;
25137;SDS011;13112;50.986;4.354;2022-07-23T04:46:09;25.65;;;23.00;;
25137;SDS011;13112;50.986;4.354;2022-07-23T04:48:35;24.70;;;22.45;;
25137;SDS011;13112;50.986;4.354;2022-07-23T04:51:01;23.88;;;21.58;;
25137;SDS011;13112;50.986;4.354;2022-07-23T04:53:27;24.63;;;22.42;;
25137;SDS011;13112;50.986;4.354;2022-07-23T04:55:53;24.95;;;22.48;;
25137;SDS011;13112;50.986;4.354;2022-07-23T04:58:18;23.33;;;21.33;;
25137;SDS011;13112;50.986;4.354;2022-07-23T05:00:45;23.20;;;21.10;;
25137;SDS011;13112;50.986;4.354;2022-07-23T05:03:11;24.08;;;21.75;;
25137;SDS011;13112;50.986;4.354;2022-07-23T05:05:36;21.73;;;19.88;;
25137;SDS011;13112;50.986;4.354;2022-07-23T05:08:02;23.83;;;21.73;;
25137;SDS011;13112;50.986;4.354;2022-07-23T05:10:28;24.45;;;22.08;;
25137;SDS011;13112;50.986;4.354;2022-07-23T05:12:53;23.95;;;21.85;;
25137;SDS011;13112;50.986;4.354;2022-07-23T05:15:19;23.48;;;21.40;;
25137;SDS011;13112;50.986;4.354;2022-07-23T05:17:45;24.92;;;22.80;;
25137;SDS011;13112;50.986;4.354;2022-07-23T05:20:10;24.42;;;22.20;;
25137;SDS011;13112;50.986;4.354;2022-07-23T05:22:36;24.65;;;22.55;;
25137;SDS011;13112;50.986;4.354;2022-07-23T05:25:02;23.38;;;21.25;;
25137;SDS011;13112;50.986;4.354;2022-07-23T05:27:29;22.45;;;20.55;;
25137;SDS011;13112;50.986;4.354;2022-07-23T05:29:55;22.63;;;20.50;;
25137;SDS011;13112;50.986;4.354;2022-07-23T05:32:20;23.15;;;20.85;;
25137;SDS011;13112;50.986;4.354;2022-07-23T05:34:47;23.15;;;20.85;;
25137;SDS011;13112;50.986;4.354;2022-07-23T05:37:13;23.52;;;21.20;;
25137;SDS011;13112;50.986;4.354;2022-07-23T05:39:38;24.20;;;21.65;;
25137;SDS011;13112;50.986;4.354;2022-07-23T05:42:04;23.30;;;21.20;;
25137;SDS011;13112;50.986;4.354;2022-07-23T05:44:30;23.08;;;20.75;;
25137;SDS011;13112;50.986;4.354;2022-07-23T05:46:55;22.77;;;20.77;;
25137;SDS011;13112;50.986;4.354;2022-07-23T05:49:21;22.08;;;20.27;;
25137;SDS011;13112;50.986;4.354;2022-07-23T05:51:46;21.92;;;20.02;;
25137;SDS011;13112;50.986;4.354;2022-07-23T05:54:12;22.38;;;20.30;;
25137;SDS011;13112;50.986;4.354;2022-07-23T05:56:38;22.08;;;19.98;;
25137;SDS011;13112;50.986;4.354;2022-07-23T05:59:03;21.63;;;19.60;;
25137;SDS011;13112;50.986;4.354;2022-07-23T06:01:29;21.52;;;19.60;;
25137;SDS011;13112;50.986;4.354;2022-07-23T06:03:55;23.30;;;20.08;;
25137;SDS011;13112;50.986;4.354;2022-07-23T06:06:20;23.00;;;20.95;;
25137;SDS011;13112;50.986;4.354;2022-07-23T06:08:47;22.33;;;20.42;;
25137;SDS011;13112;50.986;4.354;2022-07-23T06:11:13;22.33;;;20.42;;
25137;SDS011;13112;50.986;4.354;2022-07-23T06:13:39;22.10;;;20.00;;
25137;SDS011;13112;50.986;4.354;2022-07-23T06:16:04;21.25;;;19.35;;
25137;SDS011;13112;50.986;4.354;2022-07-23T06:18:30;21.15;;;19.45;;
25137;SDS011;13112;50.986;4.354;2022-07-23T06:20:55;20.77;;;18.67;;
25137;SDS011;13112;50.986;4.354;2022-07-23T06:23:21;20.52;;;19.00;;
25137;SDS011;13112;50.986;4.354;2022-07-23T06:25:47;20.50;;;18.63;;
25137;SDS011;13112;50.986;4.354;2022-07-23T06:28:12;21.23;;;19.38;;
25137;SDS011;13112;50.986;4.354;2022-07-23T06:30:38;19.48;;;17.95;;
25137;SDS011;13112;50.986;4.354;2022-07-23T06:33:04;19.75;;;18.05;;
25137;SDS011;13112;50.986;4.354;2022-07-23T06:35:29;20.55;;;18.75;;
25137;SDS011;13112;50.986;4.354;2022-07-23T06:37:55;19.67;;;18.27;;
25137;SDS011;13112;50.986;4.354;2022-07-23T06:40:21;19.50;;;18.00;;
25137;SDS011;13112;50.986;4.354;2022-07-23T06:42:46;19.88;;;18.33;;
25137;SDS011;13112;50.986;4.354;2022-07-23T06:45:12;20.02;;;18.42;;
25137;SDS011;13112;50.986;4.354;2022-07-23T06:47:38;19.98;;;18.17;;
25137;SDS011;13112;50.986;4.354;2022-07-23T06:50:04;19.63;;;17.95;;
25137;SDS011;13112;50.986;4.354;2022-07-23T06:52:30;19.30;;;17.85;;
25137;SDS011;13112;50.986;4.354;2022-07-23T06:54:56;20.33;;;18.50;;
25137;SDS011;13112;50.986;4.354;2022-07-23T06:57:22;19.42;;;17.95;;
25137;SDS011;13112;50.986;4.354;2022-07-23T06:59:48;19.50;;;17.92;;
25137;SDS011;13112;50.986;4.354;2022-07-23T07:02:13;19.55;;;18.13;;
25137;SDS011;13112;50.986;4.354;2022-07-23T07:04:39;19.10;;;17.55;;
25137;SDS011;13112;50.986;4.354;2022-07-23T07:07:05;19.45;;;17.90;;
25137;SDS011;13112;50.986;4.354;2022-07-23T07:09:30;20.05;;;18.20;;
25137;SDS011;13112;50.986;4.354;2022-07-23T07:11:56;19.60;;;17.75;;
25137;SDS011;13112;50.986;4.354;2022-07-23T07:14:22;18.92;;;17.00;;
25137;SDS011;13112;50.986;4.354;2022-07-23T07:16:47;18.30;;;16.83;;
25137;SDS011;13112;50.986;4.354;2022-07-23T07:19:13;19.20;;;17.52;;
25137;SDS011;13112;50.986;4.354;2022-07-23T07:21:39;20.20;;;18.10;;
25137;SDS011;13112;50.986;4.354;2022-07-23T07:24:04;19.02;;;17.50;;
25137;SDS011;13112;50.986;4.354;2022-07-23T07:26:31;18.75;;;17.15;;
25137;SDS011;13112;50.986;4.354;2022-07-23T07:28:57;18.48;;;17.10;;
25137;SDS011;13112;50.986;4.354;2022-07-23T07:31:23;18.02;;;16.75;;
25137;SDS011;13112;50.986;4.354;2022-07-23T07:33:48;18.58;;;17.08;;
25137;SDS011;13112;50.986;4.354;2022-07-23T07:36:14;19.40;;;17.73;;
25137;SDS011;13112;50.986;4.354;2022-07-23T07:38:40;17.83;;;16.50;;
25137;SDS011;13112;50.986;4.354;2022-07-23T07:41:05;17.48;;;16.27;;
25137;SDS011;13112;50.986;4.354;2022-07-23T07:43:32;17.52;;;16.13;;
25137;SDS011;13112;50.986;4.354;2022-07-23T07:45:58;17.40;;;15.90;;
25137;SDS011;13112;50.986;4.354;2022-07-23T07:48:24;18.45;;;16.92;;
25137;SDS011;13112;50.986;4.354;2022-07-23T07:50:50;18.23;;;16.73;;
25137;SDS011;13112;50.986;4.354;2022-07-23T07:53:16;19.27;;;17.48;;
25137;SDS011;13112;50.986;4.354;2022-07-23T07:55:42;18.58;;;17.00;;
25137;SDS011;13112;50.986;4.354;2022-07-23T07:58:07;17.10;;;15.85;;
25137;SDS011;13112;50.986;4.354;2022-07-23T08:00:33;16.92;;;15.60;;
25137;SDS011;13112;50.986;4.354;2022-07-23T08:02:59;17.73;;;16.42;;
25137;SDS011;13112;50.986;4.354;2022-07-23T08:05:25;16.92;;;15.63;;
25137;SDS011;13112;50.986;4.354;2022-07-23T08:07:57;17.92;;;16.38;;
25137;SDS011;13112;50.986;4.354;2022-07-23T08:10:24;18.63;;;17.05;;
25137;SDS011;13112;50.986;4.354;2022-07-23T08:12:52;17.02;;;15.68;;
25137;SDS011;13112;50.986;4.354;2022-07-23T08:15:19;17.92;;;16.42;;
25137;SDS011;13112;50.986;4.354;2022-07-23T08:17:46;17.88;;;16.33;;
25137;SDS011;13112;50.986;4.354;2022-07-23T08:20:13;18.23;;;16.70;;
25137;SDS011;13112;50.986;4.354;2022-07-23T08:22:43;17.25;;;15.95;;
25137;SDS011;13112;50.986;4.354;2022-07-23T08:25:15;17.15;;;15.68;;
25137;SDS011;13112;50.986;4.354;2022-07-23T08:27:45;17.25;;;16.00;;
25137;SDS011;13112;50.986;4.354;2022-07-23T08:30:10;18.95;;;16.85;;
25137;SDS011;13112;50.986;4.354;2022-07-23T08:32:53;17.20;;;15.93;;
25137;SDS011;13112;50.986;4.354;2022-07-23T08:35:28;17.80;;;16.17;;
25137;SDS011;13112;50.986;4.354;2022-07-23T08:37:58;17.63;;;16.23;;
25137;SDS011;13112;50.986;4.354;2022-07-23T08:40:26;17.15;;;15.85;;
25137;SDS011;13112;50.986;4.354;2022-07-23T08:42:53;16.48;;;15.27;;
25137;SDS011;13112;50.986;4.354;2022-07-23T08:45:20;14.90;;;14.00;;
25137;SDS011;13112;50.986;4.354;2022-07-23T08:47:51;15.15;;;14.15;;
25137;SDS011;13112;50.986;4.354;2022-07-23T08:50:18;15.40;;;14.25;;
25137;SDS011;13112;50.986;4.354;2022-07-23T08:52:46;15.90;;;14.40;;
25137;SDS011;13112;50.986;4.354;2022-07-23T08:55:15;16.45;;;14.88;;
25137;SDS011;13112;50.986;4.354;2022-07-23T08:57:42;16.23;;;14.93;;
25137;SDS011;13112;50.986;4.354;2022-07-23T09:00:08;15.18;;;14.18;;
25137;SDS011;13112;50.986;4.354;2022-07-23T09:02:38;16.83;;;15.63;;
25137;SDS011;13112;50.986;4.354;2022-07-23T09:05:12;15.38;;;14.27;;
25137;SDS011;13112;50.986;4.354;2022-07-23T09:08:02;16.70;;;15.60;;
25137;SDS011;13112;50.986;4.354;2022-07-23T09:10:54;15.13;;;14.20;;
25137;SDS011;13112;50.986;4.354;2022-07-23T09:16:25;15.68;;;14.65;;
25137;SDS011;13112;50.986;4.354;2022-07-23T09:18:55;16.08;;;14.88;;
25137;SDS011;13112;50.986;4.354;2022-07-23T09:23:56;15.52;;;14.52;;
25137;SDS011;13112;50.986;4.354;2022-07-23T09:26:24;16.08;;;14.93;;
25137;SDS011;13112;50.986;4.354;2022-07-23T09:29:07;15.85;;;14.65;;
25137;SDS011;13112;50.986;4.354;2022-07-23T09:31:34;15.27;;;14.27;;
25137;SDS011;13112;50.986;4.354;2022-07-23T09:34:16;14.82;;;13.80;;
25137;SDS011;13112;50.986;4.354;2022-07-23T09:36:42;15.18;;;13.98;;
25137;SDS011;13112;50.986;4.354;2022-07-23T09:39:08;14.20;;;13.30;;
25137;SDS011;13112;50.986;4.354;2022-07-23T09:41:42;14.48;;;13.57;;
25137;SDS011;13112;50.986;4.354;2022-07-23T09:44:10;14.93;;;13.93;;
25137;SDS011;13112;50.986;4.354;2022-07-23T09:46:52;14.85;;;13.77;;
25137;SDS011;13112;50.986;4.354;2022-07-23T09:49:24;14.65;;;13.75;;
25137;SDS011;13112;50.986;4.354;2022-07-23T09:54:22;14.57;;;13.60;;
25137;SDS011;13112;50.986;4.354;2022-07-23T09:56:51;14.40;;;13.45;;
25137;SDS011;13112;50.986;4.354;2022-07-23T09:59:17;13.50;;;12.70;;
25137;SDS011;13112;50.986;4.354;2022-07-23T10:01:44;14.40;;;13.40;;
25137;SDS011;13112;50.986;4.354;2022-07-23T10:04:10;14.65;;;13.70;;
25137;SDS011;13112;50.986;4.354;2022-07-23T10:06:37;14.05;;;13.10;;
25137;SDS011;13112;50.986;4.354;2022-07-23T10:09:05;14.45;;;13.50;;
25137;SDS011;13112;50.986;4.354;2022-07-23T10:11:33;15.25;;;14.35;;
25137;SDS011;13112;50.986;4.354;2022-07-23T10:13:59;15.30;;;14.23;;
25137;SDS011;13112;50.986;4.354;2022-07-23T10:16:28;14.90;;;13.75;;
25137;SDS011;13112;50.986;4.354;2022-07-23T10:18:54;14.57;;;13.50;;
25137;SDS011;13112;50.986;4.354;2022-07-23T10:30:00;13.88;;;13.02;;
25137;SDS011;13112;50.986;4.354;2022-07-23T10:38:02;14.75;;;13.75;;
25137;SDS011;13112;50.986;4.354;2022-07-23T10:40:36;13.52;;;12.68;;
25137;SDS011;13112;50.986;4.354;2022-07-23T10:43:03;13.80;;;13.00;;
25137;SDS011;13112;50.986;4.354;2022-07-23T10:45:41;13.95;;;13.05;;
25137;SDS011;13112;50.986;4.354;2022-07-23T10:48:17;14.25;;;13.15;;
25137;SDS011;13112;50.986;4.354;2022-07-23T10:53:56;13.80;;;12.70;;
25137;SDS011;13112;50.986;4.354;2022-07-23T10:59:13;13.18;;;12.27;;
25137;SDS011;13112;50.986;4.354;2022-07-23T11:01:39;12.98;;;12.18;;
25137;SDS011;13112;50.986;4.354;2022-07-23T11:04:06;13.07;;;12.38;;
25137;SDS011;13112;50.986;4.354;2022-07-23T11:09:26;13.73;;;12.75;;
25137;SDS011;13112;50.986;4.354;2022-07-23T11:15:04;13.57;;;12.70;;
25137;SDS011;13112;50.986;4.354;2022-07-23T11:17:32;13.23;;;12.32;;
25137;SDS011;13112;50.986;4.354;2022-07-23T11:22:38;12.82;;;12.13;;
25137;SDS011;13112;50.986;4.354;2022-07-23T11:25:05;13.82;;;12.88;;
25137;SDS011;13112;50.986;4.354;2022-07-23T11:27:41;13.23;;;12.40;;
25137;SDS011;13112;50.986;4.354;2022-07-23T11:30:09;13.77;;;12.98;;
25137;SDS011;13112;50.986;4.354;2022-07-23T11:35:33;13.68;;;12.90;;
25137;SDS011;13112;50.986;4.354;2022-07-23T11:38:07;13.60;;;12.68;;
25137;SDS011;13112;50.986;4.354;2022-07-23T11:40:44;13.55;;;12.85;;
25137;SDS011;13112;50.986;4.354;2022-07-23T11:43:17;13.40;;;12.60;;
25137;SDS011;13112;50.986;4.354;2022-07-23T11:45:45;13.52;;;12.75;;
25137;SDS011;13112;50.986;4.354;2022-07-23T11:48:20;12.75;;;12.05;;
25137;SDS011;13112;50.986;4.354;2022-07-23T11:50:49;13.55;;;12.75;;
25137;SDS011;13112;50.986;4.354;2022-07-23T11:53:22;13.45;;;12.43;;
25137;SDS011;13112;50.986;4.354;2022-07-23T11:55:53;12.75;;;11.95;;
25137;SDS011;13112;50.986;4.354;2022-07-23T11:58:20;12.90;;;12.20;;
25137;SDS011;13112;50.986;4.354;2022-07-23T12:00:45;13.50;;;12.60;;
25137;SDS011;13112;50.986;4.354;2022-07-23T12:03:11;13.18;;;12.48;;
25137;SDS011;13112;50.986;4.354;2022-07-23T12:05:37;12.82;;;12.13;;
25137;SDS011;13112;50.986;4.354;2022-07-23T12:08:05;13.15;;;12.32;;
25137;SDS011;13112;50.986;4.354;2022-07-23T12:10:36;13.57;;;12.70;;
25137;SDS011;13112;50.986;4.354;2022-07-23T12:13:09;13.27;;;12.45;;
25137;SDS011;13112;50.986;4.354;2022-07-23T12:15:43;13.10;;;12.40;;
25137;SDS011;13112;50.986;4.354;2022-07-23T12:18:17;13.23;;;12.40;;
25137;SDS011;13112;50.986;4.354;2022-07-23T12:20:49;13.43;;;12.63;;
25137;SDS011;13112;50.986;4.354;2022-07-23T12:23:20;14.20;;;13.30;;
25137;SDS011;13112;50.986;4.354;2022-07-23T12:25:47;14.00;;;13.00;;
25137;SDS011;13112;50.986;4.354;2022-07-23T12:28:16;13.13;;;12.35;;
25137;SDS011;13112;50.986;4.354;2022-07-23T12:30:53;13.65;;;12.82;;
25137;SDS011;13112;50.986;4.354;2022-07-23T12:33:28;13.55;;;12.73;;
25137;SDS011;13112;50.986;4.354;2022-07-23T12:35:59;14.40;;;13.30;;
25137;SDS011;13112;50.986;4.354;2022-07-23T12:38:27;13.20;;;12.40;;
25137;SDS011;13112;50.986;4.354;2022-07-23T12:41:00;13.23;;;12.40;;
25137;SDS011;13112;50.986;4.354;2022-07-23T12:43:30;14.00;;;13.15;;
25137;SDS011;13112;50.986;4.354;2022-07-23T12:48:38;13.90;;;13.10;;
25137;SDS011;13112;50.986;4.354;2022-07-23T12:56:11;13.45;;;12.65;;
25137;SDS011;13112;50.986;4.354;2022-07-23T12:58:55;14.48;;;13.57;;
25137;SDS011;13112;50.986;4.354;2022-07-23T13:06:31;15.20;;;14.20;;
25137;SDS011;13112;50.986;4.354;2022-07-23T13:09:01;14.90;;;13.90;;
25137;SDS011;13112;50.986;4.354;2022-07-23T13:11:31;14.07;;;13.18;;
25137;SDS011;13112;50.986;4.354;2022-07-23T13:13:57;14.02;;;13.13;;
25137;SDS011;13112;50.986;4.354;2022-07-23T13:16:25;14.32;;;13.27;;
25137;SDS011;13112;50.986;4.354;2022-07-23T13:18:51;13.65;;;12.85;;
25137;SDS011;13112;50.986;4.354;2022-07-23T13:21:17;14.43;;;13.63;;
25137;SDS011;13112;50.986;4.354;2022-07-23T13:23:50;14.73;;;13.85;;
25137;SDS011;13112;50.986;4.354;2022-07-23T13:26:15;13.52;;;12.65;;
25137;SDS011;13112;50.986;4.354;2022-07-23T13:28:41;14.50;;;13.60;;
25137;SDS011;13112;50.986;4.354;2022-07-23T13:31:07;14.38;;;13.27;;
25137;SDS011;13112;50.986;4.354;2022-07-23T13:33:33;14.98;;;13.98;;
25137;SDS011;13112;50.986;4.354;2022-07-23T13:35:59;14.75;;;13.60;;
25137;SDS011;13112;50.986;4.354;2022-07-23T13:38:25;14.93;;;14.00;;
25137;SDS011;13112;50.986;4.354;2022-07-23T13:40:51;15.50;;;14.40;;
25137;SDS011;13112;50.986;4.354;2022-07-23T13:43:19;15.13;;;14.13;;
25137;SDS011;13112;50.986;4.354;2022-07-23T13:45:47;15.43;;;14.27;;
25137;SDS011;13112;50.986;4.354;2022-07-23T13:48:13;15.65;;;14.55;;
25137;SDS011;13112;50.986;4.354;2022-07-23T13:50:39;14.65;;;13.45;;
25137;SDS011;13112;50.986;4.354;2022-07-23T13:53:08;14.85;;;13.85;;
25137;SDS011;13112;50.986;4.354;2022-07-23T13:55:36;14.05;;;13.23;;
25137;SDS011;13112;50.986;4.354;2022-07-23T13:58:03;14.95;;;13.80;;
25137;SDS011;13112;50.986;4.354;2022-07-23T14:00:30;15.18;;;14.13;;
25137;SDS011;13112;50.986;4.354;2022-07-23T14:02:57;14.43;;;13.52;;
25137;SDS011;13112;50.986;4.354;2022-07-23T14:05:26;15.18;;;14.07;;
25137;SDS011;13112;50.986;4.354;2022-07-23T14:07:52;15.20;;;14.30;;
25137;SDS011;13112;50.986;4.354;2022-07-23T14:10:19;14.82;;;13.88;;
25137;SDS011;13112;50.986;4.354;2022-07-23T14:12:46;15.40;;;14.50;;
25137;SDS011;13112;50.986;4.354;2022-07-23T14:15:13;15.00;;;14.00;;
25137;SDS011;13112;50.986;4.354;2022-07-23T14:17:43;14.18;;;13.27;;
25137;SDS011;13112;50.986;4.354;2022-07-23T14:20:10;14.27;;;13.43;;
25137;SDS011;13112;50.986;4.354;2022-07-23T14:22:37;15.30;;;14.38;;
25137;SDS011;13112;50.986;4.354;2022-07-23T14:25:03;15.60;;;14.50;;
25137;SDS011;13112;50.986;4.354;2022-07-23T14:27:29;14.80;;;13.82;;
25137;SDS011;13112;50.986;4.354;2022-07-23T14:29:55;15.90;;;14.82;;
25137;SDS011;13112;50.986;4.354;2022-07-23T14:32:22;15.82;;;14.63;;
25137;SDS011;13112;50.986;4.354;2022-07-23T14:34:48;15.38;;;14.38;;
25137;SDS011;13112;50.986;4.354;2022-07-23T14:37:14;15.82;;;14.52;;
25137;SDS011;13112;50.986;4.354;2022-07-23T14:39:41;15.45;;;14.45;;
25137;SDS011;13112;50.986;4.354;2022-07-23T14:42:08;15.27;;;14.18;;
25137;SDS011;13112;50.986;4.354;2022-07-23T14:44:35;15.13;;;14.05;;
25137;SDS011;13112;50.986;4.354;2022-07-23T14:47:01;15.15;;;14.07;;
25137;SDS011;13112;50.986;4.354;2022-07-23T14:49:29;15.10;;;14.20;;
25137;SDS011;13112;50.986;4.354;2022-07-23T14:51:55;15.95;;;14.77;;
25137;SDS011;13112;50.986;4.354;2022-07-23T14:54:22;15.07;;;14.10;;
25137;SDS011;13112;50.986;4.354;2022-07-23T14:56:48;14.80;;;13.88;;
25137;SDS011;13112;50.986;4.354;2022-07-23T14:59:14;15.95;;;14.70;;
25137;SDS011;13112;50.986;4.354;2022-07-23T15:01:39;15.45;;;14.45;;
25137;SDS011;13112;50.986;4.354;2022-07-23T15:04:06;16.48;;;14.90;;
25137;SDS011;13112;50.986;4.354;2022-07-23T15:06:32;15.70;;;14.63;;
25137;SDS011;13112;50.986;4.354;2022-07-23T15:08:58;15.88;;;14.98;;
25137;SDS011;13112;50.986;4.354;2022-07-23T15:11:25;16.05;;;14.90;;
25137;SDS011;13112;50.986;4.354;2022-07-23T15:13:52;16.35;;;15.15;;